MSC Rania — 3EEB3 — position and weather

sailwx.info

Track history (hours):
 
Tides and Currents Weather Stations Pressure Air Temp Water Temp Dewpoint Dewpoint Depression Visibility Wind Speed Wind Dir Waves Ship Positions

MSC Rania

Last reported at 2018-Apr-23 03:09 UTC. Time now 2018-Apr-25 10:40 UTC.
Position N 01°21' E 104°25'.

Length 332 m; draft 9.1 m.

Type: Ship (hazmat cat A). MMSI: 371752000.

Date/timePositionNaut miles runAvg speedWind from/ knotsBaromVisibWave heightAir tempDewpointWater temp
2018-Apr-23 03:09N 01°21' E 104°25'415.6
2018-Apr-23 02:56N 01°19' E 104°22'715.2
2018-Apr-23 02:29N 01°16' E 104°16'816.1
2018-Apr-23 01:59N 01°15' E 104°08'1315.6
2018-Apr-23 01:10N 01°13' E 103°55'312.5
2018-Apr-23 00:56N 01°12' E 103°53'715.1
2018-Apr-23 00:30N 01°09' E 103°47'917.2
2018-Apr-22 23:59N 01°03' E 103°40'715.1
2018-Apr-22 23:30N 01°06' E 103°33'915.5
2018-Apr-22 22:56N 01°10' E 103°26'615.2
2018-Apr-22 22:30N 01°14' E 103°20'  
Track history (hours):
 
Tides and Currents Weather Stations Pressure Air Temp Water Temp Dewpoint Dewpoint Depression Visibility Wind Speed Wind Dir Waves Ship Positions

MSC Rania

Last reported at 2018-Apr-23 03:09 UTC. Time now 2018-Apr-25 10:40 UTC.
Position N 01°21' E 104°25'.

Length 332 m; draft 9.1 m.

Type: Ship (hazmat cat A). MMSI: 371752000.

Date/timePositionNaut miles runAvg speedWind from/ knotsBaromVisibWave heightAir tempDewpointWater temp
2018-Apr-23 03:09N 01°21' E 104°25'415.6
2018-Apr-23 02:56N 01°19' E 104°22'715.2
2018-Apr-23 02:29N 01°16' E 104°16'816.1
2018-Apr-23 01:59N 01°15' E 104°08'1315.6
2018-Apr-23 01:10N 01°13' E 103°55'312.5
2018-Apr-23 00:56N 01°12' E 103°53'715.1
2018-Apr-23 00:30N 01°09' E 103°47'917.2
2018-Apr-22 23:59N 01°03' E 103°40'715.1
2018-Apr-22 23:30N 01°06' E 103°33'915.5
2018-Apr-22 22:56N 01°10' E 103°26'615.2
2018-Apr-22 22:30N 01°14' E 103°20'  

Dump ship's entire track history